Time;durP1;ratioP1;P1;durP2;ratioP2;P2;SDS_P1;SDS_P2;PMS_P1;PMS_P2;Temp;Humidity;BMP_temperature;BMP_pressure;BME280_temperature;BME280_humidity;BME280_pressure;Samples;Min_cycle;Max_cycle;Signal;HPM_P1;HPM_P2
2021/04/13 00:02:19;;;;;;;28.52;12.85;;;;;;;;;;5054481;28;20083;-80
2021/04/13 00:04:45;;;;;;;22.00;12.77;;;;;;;;;;5057013;28;20455;-80
2021/04/13 00:07:11;;;;;;;19.50;10.85;;;;;;;;;;5058127;28;20308;-80
2021/04/13 00:09:38;;;;;;;15.48;10.48;;;;;;;;;;5058307;28;20021;-80
2021/04/13 00:12:10;;;;;;;18.83;10.30;;;;;;;;;;5079494;27;20051;-80
2021/04/13 00:14:38;;;;;;;16.75;9.60;;;;;;;;;;5141310;27;20030;-80
2021/04/13 00:17:07;;;;;;;16.58;9.70;;;;;;;;;;5141182;27;20520;-80
2021/04/13 00:19:46;;;;;;;11.70;8.68;;;;;;;;;;5139879;27;20495;-80
2021/04/13 00:22:13;;;;;;;14.50;8.90;;;;;;;;;;5140880;27;20085;-80
2021/04/13 00:24:39;;;;;;;18.48;9.25;;;;;;;;;;5141088;27;20421;-80
2021/04/13 00:27:06;;;;;;;14.90;10.15;;;;;;;;;;5141128;27;20325;-80
2021/04/13 00:29:32;;;;;;;14.45;10.00;;;;;;;;;;5139956;27;20441;-80
2021/04/13 00:32:05;;;;;;;18.45;10.85;;;;;;;;;;5140890;27;20023;-80
2021/04/13 00:34:52;;;;;;;16.33;9.52;;;;;;;;;;5141077;27;20087;-79
2021/04/13 00:37:25;;;;;;;16.73;9.48;;;;;;;;;;5140911;27;20076;-80
2021/04/13 00:39:53;;;;;;;14.13;9.40;;;;;;;;;;5140963;27;20106;-80
2021/04/13 00:42:24;;;;;;;18.33;9.63;;;;;;;;;;5139593;27;20054;-79
2021/04/13 00:44:53;;;;;;;13.35;9.38;;;;;;;;;;5128670;27;20015;-80
2021/04/13 00:47:30;;;;;;;13.20;8.77;;;;;;;;;;5119899;28;20027;-80
2021/04/13 00:49:58;;;;;;;11.57;8.25;;;;;;;;;;5119854;28;20333;-80
2021/04/13 00:52:33;;;;;;;14.02;8.98;;;;;;;;;;5119908;28;20409;-79
2021/04/13 00:54:59;;;;;;;10.88;8.38;;;;;;;;;;5119740;28;20032;-80
2021/04/13 00:57:46;;;;;;;11.65;8.77;;;;;;;;;;5119801;28;20405;-80
2021/04/13 01:00:22;;;;;;;13.32;8.15;;;;;;;;;;5119736;28;20035;-79
2021/04/13 01:02:48;;;;;;;10.55;7.88;;;;;;;;;;5119991;28;20016;-79
2021/04/13 01:05:20;;;;;;;11.55;8.25;;;;;;;;;;5118388;28;20317;-79
2021/04/13 01:07:48;;;;;;;17.23;9.60;;;;;;;;;;5119610;28;20047;-80
2021/04/13 01:10:27;;;;;;;10.88;6.68;;;;;;;;;;5123787;27;20019;-80
2021/04/13 01:13:09;;;;;;;9.60;7.05;;;;;;;;;;5140164;27;20015;-80
2021/04/13 01:15:36;;;;;;;11.05;7.05;;;;;;;;;;5139598;27;20027;-80
2021/04/13 01:18:05;;;;;;;10.32;7.50;;;;;;;;;;5140252;27;20076;-80
2021/04/13 01:20:46;;;;;;;9.52;7.75;;;;;;;;;;5139689;27;20513;-79
2021/04/13 01:23:21;;;;;;;9.25;7.45;;;;;;;;;;5139985;27;20062;-79
2021/04/13 01:25:49;;;;;;;9.55;8.13;;;;;;;;;;5140034;27;20076;-79
2021/04/13 01:28:20;;;;;;;9.20;7.53;;;;;;;;;;5138792;27;20359;-79
2021/04/13 01:30:49;;;;;;;13.98;7.65;;;;;;;;;;5139834;27;20046;-79
2021/04/13 01:33:18;;;;;;;8.65;6.50;;;;;;;;;;5139608;27;20027;-79
2021/04/13 01:35:58;;;;;;;10.15;7.55;;;;;;;;;;5139828;27;20152;-78
2021/04/13 01:38:39;;;;;;;9.77;7.65;;;;;;;;;;5139487;27;20031;-78
2021/04/13 01:43:42;;;;;;;9.27;6.28;;;;;;;;;;5139749;27;20023;-79
2021/04/13 01:46:08;;;;;;;9.85;6.80;;;;;;;;;;5138339;27;20149;-79
2021/04/13 01:48:35;;;;;;;8.65;6.35;;;;;;;;;;5139272;27;20027;-79
2021/04/13 01:51:02;;;;;;;10.25;6.63;;;;;;;;;;5139289;27;20023;-79
2021/04/13 01:53:29;;;;;;;8.57;6.72;;;;;;;;;;5139202;27;20424;-79
2021/04/13 01:55:58;;;;;;;8.63;6.90;;;;;;;;;;5138148;27;20034;-79
2021/04/13 01:58:27;;;;;;;11.48;6.60;;;;;;;;;;5139016;27;20316;-79
2021/04/13 02:01:13;;;;;;;9.55;6.68;;;;;;;;;;5139126;27;20030;-79
2021/04/13 02:03:39;;;;;;;9.80;7.03;;;;;;;;;;5139085;27;20050;-80
2021/04/13 02:06:10;;;;;;;8.35;6.65;;;;;;;;;;5139435;27;20347;-80
2021/04/13 02:08:42;;;;;;;9.05;6.60;;;;;;;;;;5139088;27;20337;-80
2021/04/13 02:11:09;;;;;;;;;;;;;;;;;;5138321;27;20030;-81
2021/04/13 02:13:38;;;;;;;15.00;8.32;;;;;;;;;;5138904;27;19939;-80
2021/04/13 02:16:07;;;;;;;13.15;8.32;;;;;;;;;;5138886;27;20439;-80
2021/04/13 02:18:44;;;;;;;12.32;8.13;;;;;;;;;;5138705;27;20031;-80
2021/04/13 02:21:19;;;;;;;9.90;7.15;;;;;;;;;;5138650;27;20112;-80
2021/04/13 02:23:48;;;;;;;10.60;6.82;;;;;;;;;;5138543;27;20027;-80
2021/04/13 02:26:15;;;;;;;7.65;6.60;;;;;;;;;;5136844;27;20031;-80
2021/04/13 02:28:45;;;;;;;9.05;6.93;;;;;;;;;;5138879;27;20144;-80
2021/04/13 02:31:13;;;;;;;9.60;6.93;;;;;;;;;;5138678;27;20019;-81
2021/04/13 02:33:43;;;;;;;9.75;6.32;;;;;;;;;;5138655;27;20015;-81
2021/04/13 02:36:26;;;;;;;8.85;6.90;;;;;;;;;;5138713;27;20050;-81
2021/04/13 02:38:54;;;;;;;7.75;5.95;;;;;;;;;;5138714;27;20027;-81
2021/04/13 02:41:25;;;;;;;15.63;6.57;;;;;;;;;;5138430;27;20019;-81
2021/04/13 02:43:54;;;;;;;8.85;6.60;;;;;;;;;;5138474;27;20026;-81
2021/04/13 02:46:23;;;;;;;12.80;7.25;;;;;;;;;;5138467;27;20445;-81
2021/04/13 02:49:02;;;;;;;10.27;6.95;;;;;;;;;;5138282;27;20023;-81
2021/04/13 02:51:29;;;;;;;10.73;6.63;;;;;;;;;;5137319;27;20054;-80
2021/04/13 02:53:56;;;;;;;8.93;6.43;;;;;;;;;;5138195;27;20409;-81
2021/04/13 02:56:27;;;;;;;8.45;6.28;;;;;;;;;;5138330;27;20114;-80
2021/04/13 02:58:56;;;;;;;11.27;6.82;;;;;;;;;;5138278;27;20019;-80
2021/04/13 03:01:23;;;;;;;8.18;5.90;;;;;;;;;;5138082;27;20405;-81
2021/04/13 03:03:50;;;;;;;7.05;5.88;;;;;;;;;;5138538;27;20102;-81
2021/04/13 03:06:16;;;;;;;10.07;6.80;;;;;;;;;;5138163;27;20030;-81
2021/04/13 03:08:42;;;;;;;10.77;6.68;;;;;;;;;;5138241;27;20364;-81
2021/04/13 03:11:11;;;;;;;7.40;5.68;;;;;;;;;;5137963;27;20018;-81
2021/04/13 03:13:37;;;;;;;7.63;6.40;;;;;;;;;;5137904;27;20132;-80
2021/04/13 03:16:04;;;;;;;8.93;5.63;;;;;;;;;;5137925;27;20433;-81
2021/04/13 03:18:51;;;;;;;6.40;5.40;;;;;;;;;;5138094;27;20050;-81
2021/04/13 03:21:22;;;;;;;7.50;5.65;;;;;;;;;;5137016;28;20130;-81
2021/04/13 03:23:49;;;;;;;6.80;5.47;;;;;;;;;;5137944;28;20072;-81
2021/04/13 03:26:21;;;;;;;9.63;5.20;;;;;;;;;;5136471;28;20035;-81
2021/04/13 03:28:52;;;;;;;6.15;5.22;;;;;;;;;;5136904;28;20051;-81
2021/04/13 03:31:20;;;;;;;6.57;5.47;;;;;;;;;;5136835;28;20110;-81
2021/04/13 03:33:46;;;;;;;7.90;6.22;;;;;;;;;;5138036;28;20023;-80
2021/04/13 03:36:18;;;;;;;9.00;6.20;;;;;;;;;;5137791;28;20027;-80
2021/04/13 03:38:47;;;;;;;6.97;5.80;;;;;;;;;;5140486;27;20029;-80
2021/04/13 03:41:17;;;;;;;7.82;6.22;;;;;;;;;;5140472;27;20443;-86
2021/04/13 03:43:44;;;;;;;8.30;6.63;;;;;;;;;;5141887;27;20058;-80
2021/04/13 03:46:11;;;;;;;8.52;6.55;;;;;;;;;;5125162;27;20352;-81
2021/04/13 03:48:39;;;;;;;9.43;6.43;;;;;;;;;;5121250;28;20069;-81
2021/04/13 03:51:05;;;;;;;7.45;5.78;;;;;;;;;;5121460;28;20034;-80
2021/04/13 03:53:33;;;;;;;6.40;4.60;;;;;;;;;;5121057;28;20068;-80
2021/04/13 03:56:05;;;;;;;5.40;4.15;;;;;;;;;;5121362;28;20064;-82
2021/04/13 03:58:34;;;;;;;6.55;4.30;;;;;;;;;;5121064;28;20023;-82
2021/04/13 04:01:00;;;;;;;5.18;4.38;;;;;;;;;;5120945;28;20027;-81
2021/04/13 04:03:33;;;;;;;10.45;4.70;;;;;;;;;;5120741;28;20030;-81
2021/04/13 04:05:59;;;;;;;;;;;;;;;;;;5121445;28;20332;-82
2021/04/13 04:08:32;;;;;;;7.72;5.53;;;;;;;;;;5121133;28;19911;-80
2021/04/13 04:10:58;;;;;;;8.20;5.78;;;;;;;;;;5120443;28;20045;-80
2021/04/13 04:13:24;;;;;;;9.05;6.15;;;;;;;;;;5119650;28;20455;-81
2021/04/13 04:15:52;;;;;;;7.88;5.50;;;;;;;;;;5120627;28;20022;-82
2021/04/13 04:18:27;;;;;;;8.80;6.03;;;;;;;;;;5120884;28;20020;-82
2021/04/13 04:20:54;;;;;;;8.10;5.90;;;;;;;;;;5119627;28;20118;-82
2021/04/13 04:23:25;;;;;;;8.65;6.20;;;;;;;;;;5119368;28;20039;-81
2021/04/13 04:25:53;;;;;;;7.97;5.78;;;;;;;;;;5120784;28;20042;-82
2021/04/13 04:28:38;;;;;;;7.45;5.90;;;;;;;;;;5119173;28;20028;-82
2021/04/13 04:31:36;;;;;;;8.18;6.15;;;;;;;;;;5120542;28;20035;-81
2021/04/13 04:34:22;;;;;;;9.07;5.85;;;;;;;;;;5120770;28;20016;-82
2021/04/13 04:36:56;;;;;;;8.63;5.60;;;;;;;;;;5120899;28;20039;-82
2021/04/13 04:39:30;;;;;;;9.68;6.15;;;;;;;;;;5120320;28;20092;-82
2021/04/13 04:41:59;;;;;;;8.30;5.22;;;;;;;;;;5137819;27;20051;-82
2021/04/13 04:44:27;;;;;;;8.45;5.57;;;;;;;;;;5139919;27;20023;-82
2021/04/13 04:46:58;;;;;;;11.02;5.28;;;;;;;;;;5140920;27;20027;-81
2021/04/13 04:49:25;;;;;;;9.53;6.07;;;;;;;;;;5139845;27;20416;-81
2021/04/13 04:51:53;;;;;;;7.82;5.20;;;;;;;;;;5140613;27;20107;-81
2021/04/13 04:54:21;;;;;;;9.48;5.22;;;;;;;;;;5123249;27;20020;-81
2021/04/13 04:56:47;;;;;;;9.32;4.90;;;;;;;;;;5116189;28;20030;-82
2021/04/13 04:59:13;;;;;;;6.95;5.15;;;;;;;;;;5119993;28;20095;-82
2021/04/13 05:01:39;;;;;;;8.98;4.93;;;;;;;;;;5117361;28;20020;-81
2021/04/13 05:04:05;;;;;;;7.07;5.10;;;;;;;;;;5114428;28;20024;-82
2021/04/13 05:06:31;;;;;;;8.38;4.70;;;;;;;;;;5116448;28;20111;-82
2021/04/13 05:08:57;;;;;;;7.22;4.80;;;;;;;;;;5099279;28;20344;-82
2021/04/13 05:11:24;;;;;;;10.02;7.90;;;;;;;;;;5124897;27;20399;-81
2021/04/13 05:13:50;;;;;;;10.30;7.20;;;;;;;;;;5108045;27;20016;-81
2021/04/13 05:16:17;;;;;;;33.03;11.90;;;;;;;;;;5099403;28;20020;-81
2021/04/13 05:18:43;;;;;;;24.48;9.38;;;;;;;;;;5099209;28;20036;-82
2021/04/13 05:21:09;;;;;;;27.98;8.68;;;;;;;;;;5099067;28;20098;-81
2021/04/13 05:23:36;;;;;;;13.15;6.43;;;;;;;;;;5112363;27;20068;-81
2021/04/13 05:26:03;;;;;;;13.43;7.15;;;;;;;;;;5119195;28;20066;-81
2021/04/13 05:28:29;;;;;;;18.80;7.03;;;;;;;;;;5118303;28;20414;-81
2021/04/13 05:30:55;;;;;;;17.00;6.82;;;;;;;;;;5101733;28;20028;-81
2021/04/13 05:33:22;;;;;;;8.10;5.45;;;;;;;;;;5098934;28;20031;-82
2021/04/13 05:35:49;;;;;;;23.00;8.23;;;;;;;;;;5097879;28;20315;-81
2021/04/13 05:38:26;;;;;;;9.32;5.70;;;;;;;;;;5097889;28;20310;-81
2021/04/13 05:40:53;;;;;;;16.77;7.15;;;;;;;;;;5115671;27;20038;-82
2021/04/13 05:43:19;;;;;;;9.35;5.35;;;;;;;;;;5132464;27;20413;-81
2021/04/13 05:45:48;;;;;;;6.05;4.90;;;;;;;;;;5104417;28;20073;-80
2021/04/13 05:48:14;;;;;;;12.15;5.75;;;;;;;;;;5097131;28;20552;-81
2021/04/13 05:50:42;;;;;;;8.40;5.90;;;;;;;;;;5098539;28;20093;-80
2021/04/13 05:53:08;;;;;;;7.13;5.53;;;;;;;;;;5098765;28;20032;-80
2021/04/13 05:55:35;;;;;;;9.27;5.60;;;;;;;;;;5097463;28;20065;-81
2021/04/13 05:58:02;;;;;;;12.60;5.97;;;;;;;;;;5098660;28;20055;-80
2021/04/13 06:00:29;;;;;;;15.70;8.23;;;;;;;;;;5098331;28;20034;-80
2021/04/13 06:02:55;;;;;;;21.20;9.75;;;;;;;;;;5097883;28;20024;-81
2021/04/13 06:05:22;;;;;;;26.23;11.63;;;;;;;;;;5098329;28;20024;-81
2021/04/13 06:07:49;;;;;;;17.33;9.43;;;;;;;;;;5098002;28;20016;-80
2021/04/13 06:10:16;;;;;;;9.50;6.97;;;;;;;;;;5098138;28;20045;-80
2021/04/13 06:12:42;;;;;;;12.98;8.38;;;;;;;;;;5098362;28;20016;-81
2021/04/13 06:15:09;;;;;;;16.85;9.85;;;;;;;;;;5098191;28;20032;-80
2021/04/13 06:17:35;;;;;;;26.40;13.25;;;;;;;;;;5097837;28;20024;-80
2021/04/13 06:20:03;;;;;;;20.52;11.00;;;;;;;;;;5097900;28;20083;-81
2021/04/13 06:22:29;;;;;;;14.05;8.10;;;;;;;;;;5098124;28;20062;-81
2021/04/13 06:24:55;;;;;;;12.05;7.40;;;;;;;;;;5097734;28;20028;-80
2021/04/13 06:27:21;;;;;;;10.52;7.38;;;;;;;;;;5096763;28;20027;-80
2021/04/13 06:29:47;;;;;;;8.93;6.43;;;;;;;;;;5097791;28;20410;-81
2021/04/13 06:32:13;;;;;;;11.95;6.47;;;;;;;;;;5096272;28;20067;-80
2021/04/13 06:34:40;;;;;;;9.50;6.68;;;;;;;;;;5097836;28;20020;-81
2021/04/13 06:37:09;;;;;;;7.43;6.32;;;;;;;;;;5097418;28;20020;-80
2021/04/13 06:39:36;;;;;;;9.52;7.00;;;;;;;;;;5097631;28;20028;-80
2021/04/13 06:42:11;;;;;;;9.52;6.47;;;;;;;;;;5096624;28;20042;-80
2021/04/13 06:44:56;;;;;;;8.30;6.60;;;;;;;;;;5097589;28;20398;-81
2021/04/13 06:47:34;;;;;;;16.33;8.85;;;;;;;;;;5097570;28;20394;-80
2021/04/13 06:50:19;;;;;;;10.20;6.65;;;;;;;;;;5097877;28;20065;-80
2021/04/13 06:53:04;;;;;;;9.15;6.82;;;;;;;;;;5097725;28;20020;-80
2021/04/13 06:55:39;;;;;;;10.43;6.80;;;;;;;;;;5097623;28;20024;-80
2021/04/13 06:58:17;;;;;;;9.30;6.85;;;;;;;;;;5097401;28;20023;-80
2021/04/13 07:00:58;;;;;;;7.20;6.00;;;;;;;;;;5097374;28;20035;-80
2021/04/13 07:03:32;;;;;;;14.95;8.32;;;;;;;;;;5097673;28;20024;-80
2021/04/13 07:06:05;;;;;;;18.08;8.68;;;;;;;;;;5097257;28;20116;-79
2021/04/13 07:08:39;;;;;;;12.13;6.90;;;;;;;;;;5097302;28;20027;-80
2021/04/13 07:11:15;;;;;;;18.00;7.90;;;;;;;;;;5095761;28;20407;-80
2021/04/13 07:14:00;;;;;;;8.27;6.25;;;;;;;;;;5096878;28;20146;-80
2021/04/13 07:16:43;;;;;;;6.75;5.43;;;;;;;;;;5097056;28;20031;-80
2021/04/13 07:19:21;;;;;;;9.52;6.05;;;;;;;;;;5095878;28;20120;-80
2021/04/13 07:22:02;;;;;;;11.63;7.30;;;;;;;;;;5096078;28;20052;-79
2021/04/13 07:24:48;;;;;;;12.48;7.28;;;;;;;;;;5096967;28;20471;-79
2021/04/13 07:27:21;;;;;;;10.52;7.30;;;;;;;;;;5095678;28;20089;-80
2021/04/13 07:29:49;;;;;;;8.43;5.95;;;;;;;;;;5097253;28;20040;-80
2021/04/13 07:32:17;;;;;;;9.80;5.72;;;;;;;;;;5096981;28;20115;-79
2021/04/13 07:34:45;;;;;;;8.82;6.28;;;;;;;;;;5097048;28;20344;-79
2021/04/13 07:37:16;;;;;;;8.13;5.63;;;;;;;;;;5097227;28;20108;-79
2021/04/13 07:39:43;;;;;;;9.13;5.93;;;;;;;;;;5096970;28;20028;-79
2021/04/13 07:42:13;;;;;;;7.80;5.47;;;;;;;;;;5095873;28;20039;-79
2021/04/13 07:45:01;;;;;;;10.20;6.38;;;;;;;;;;5096926;28;20020;-80
2021/04/13 07:47:34;;;;;;;8.60;5.78;;;;;;;;;;5096920;28;20069;-80
2021/04/13 07:50:00;;;;;;;13.40;7.57;;;;;;;;;;5096975;28;20054;-80
2021/04/13 07:52:44;;;;;;;10.70;6.50;;;;;;;;;;5096870;28;20057;-80
2021/04/13 07:55:26;;;;;;;11.80;5.80;;;;;;;;;;5096631;28;20410;-79
2021/04/13 07:57:58;;;;;;;8.80;5.40;;;;;;;;;;5096963;28;20059;-79
2021/04/13 08:00:25;;;;;;;14.35;8.45;;;;;;;;;;5096693;28;20020;-80
2021/04/13 08:03:07;;;;;;;14.05;9.70;;;;;;;;;;5096801;28;20406;-80
2021/04/13 08:05:44;;;;;;;11.68;5.47;;;;;;;;;;5096842;28;20150;-76
2021/04/13 08:08:30;;;;;;;16.13;7.05;;;;;;;;;;5096916;28;20024;-76
2021/04/13 08:11:07;;;;;;;11.15;5.43;;;;;;;;;;5095236;28;20037;-76
2021/04/13 08:13:33;;;;;;;17.08;6.97;;;;;;;;;;5096650;28;20139;-76
2021/04/13 08:16:00;;;;;;;8.73;5.18;;;;;;;;;;5096762;28;20028;-76
2021/04/13 08:18:45;;;;;;;22.02;11.10;;;;;;;;;;5096199;28;20024;-76
2021/04/13 08:21:14;;;;;;;25.15;12.25;;;;;;;;;;5096356;28;20039;-76
2021/04/13 08:23:40;;;;;;;17.05;11.15;;;;;;;;;;5096657;28;20048;-76
2021/04/13 08:26:21;;;;;;;11.68;8.07;;;;;;;;;;5099124;28;20062;-76
2021/04/13 08:28:57;;;;;;;9.70;6.22;;;;;;;;;;5100058;28;20032;-77
2021/04/13 08:34:08;;;;;;;8.48;5.70;;;;;;;;;;5100044;28;20066;-77
2021/04/13 08:36:45;;;;;;;16.83;7.97;;;;;;;;;;5100219;28;20063;-77
2021/04/13 08:39:26;;;;;;;20.52;11.18;;;;;;;;;;5099869;28;20035;-77
2021/04/13 08:42:11;;;;;;;10.02;5.90;;;;;;;;;;5099913;28;20024;-76
2021/04/13 08:44:56;;;;;;;11.90;6.13;;;;;;;;;;5099679;28;20103;-76
2021/04/13 08:47:26;;;;;;;7.78;5.80;;;;;;;;;;5099787;28;20042;-77
2021/04/13 08:50:00;;;;;;;29.73;19.00;;;;;;;;;;5100024;28;20453;-76
2021/04/13 08:52:44;;;;;;;36.30;25.38;;;;;;;;;;5099886;28;20028;-76
2021/04/13 08:55:19;;;;;;;11.75;8.13;;;;;;;;;;5098723;28;20032;-78
2021/04/13 08:57:47;;;;;;;10.90;6.38;;;;;;;;;;5099826;28;20314;-77
2021/04/13 09:00:32;;;;;;;9.82;6.68;;;;;;;;;;5102711;28;20031;-77
2021/04/13 09:02:59;;;;;;;8.05;6.55;;;;;;;;;;5118125;28;20026;-77
2021/04/13 09:05:27;;;;;;;8.68;5.65;;;;;;;;;;5099315;28;20345;-77
2021/04/13 09:07:55;;;;;;;10.88;5.68;;;;;;;;;;5099426;28;20437;-77
2021/04/13 09:10:29;;;;;;;11.48;6.45;;;;;;;;;;5099198;28;20028;-77
2021/04/13 09:13:14;;;;;;;9.52;5.78;;;;;;;;;;5099191;28;20030;-77
2021/04/13 09:15:51;;;;;;;7.72;4.90;;;;;;;;;;5099258;28;20098;-77
2021/04/13 09:18:20;;;;;;;7.45;4.75;;;;;;;;;;5098710;28;20024;-77
2021/04/13 09:20:59;;;;;;;7.95;5.45;;;;;;;;;;5097980;28;20040;-76
2021/04/13 09:23:44;;;;;;;7.78;5.30;;;;;;;;;;5098927;28;20024;-77
2021/04/13 09:26:30;;;;;;;7.68;4.78;;;;;;;;;;5098817;28;20035;-76
2021/04/13 09:28:57;;;;;;;15.32;7.43;;;;;;;;;;5098836;28;20062;-76
2021/04/13 09:31:31;;;;;;;6.93;5.47;;;;;;;;;;5099016;28;20095;-76
2021/04/13 09:34:08;;;;;;;6.63;5.18;;;;;;;;;;5098865;28;20143;-77
2021/04/13 09:36:44;;;;;;;16.63;7.95;;;;;;;;;;5098541;28;20472;-76
2021/04/13 09:39:16;;;;;;;9.40;5.85;;;;;;;;;;5098766;28;20032;-77
2021/04/13 09:41:42;;;;;;;;;;;;;;;;;;5099415;28;20106;-77
2021/04/13 09:44:21;;;;;;;11.98;6.68;;;;;;;;;;5098625;28;20266;-76
2021/04/13 09:47:03;;;;;;;9.50;5.22;;;;;;;;;;5098447;28;20433;-76
2021/04/13 09:49:48;;;;;;;7.32;5.07;;;;;;;;;;5097418;28;20032;-77
2021/04/13 09:52:42;;;;;;;11.10;6.32;;;;;;;;;;5098451;28;20426;-77
2021/04/13 09:55:12;;;;;;;14.70;8.30;;;;;;;;;;5098311;28;20058;-74
2021/04/13 09:57:45;;;;;;;16.13;8.15;;;;;;;;;;5098547;28;20330;-75
2021/04/13 10:00:17;;;;;;;23.40;14.07;;;;;;;;;;5098569;28;20027;-80
2021/04/13 10:03:02;;;;;;;21.65;12.18;;;;;;;;;;5098457;28;20397;-82
2021/04/13 10:05:29;;;;;;;17.98;10.15;;;;;;;;;;5098269;28;20028;-79
2021/04/13 10:07:55;;;;;;;6.57;4.68;;;;;;;;;;5102635;27;20062;-79
2021/04/13 10:10:24;;;;;;;9.23;6.20;;;;;;;;;;5131196;27;20031;-79
2021/04/13 10:13:05;;;;;;;35.67;16.08;;;;;;;;;;5117019;28;20119;-79
2021/04/13 10:15:31;;;;;;;28.83;13.10;;;;;;;;;;5116885;28;20039;-80
2021/04/13 10:18:07;;;;;;;18.90;9.65;;;;;;;;;;5118682;28;20110;-80
2021/04/13 10:20:48;;;;;;;16.27;9.25;;;;;;;;;;5118037;28;20043;-80
2021/04/13 10:23:24;;;;;;;13.68;8.07;;;;;;;;;;5116990;28;20075;-80
2021/04/13 10:25:50;;;;;;;37.47;12.48;;;;;;;;;;5116906;28;20032;-81
2021/04/13 10:28:19;;;;;;;32.28;12.25;;;;;;;;;;5114689;28;20050;-83
2021/04/13 10:30:45;;;;;;;26.33;13.38;;;;;;;;;;5098232;28;20024;-80
2021/04/13 10:33:11;;;;;;;15.48;7.82;;;;;;;;;;5106723;28;20090;-80
2021/04/13 10:35:37;;;;;;;14.38;8.20;;;;;;;;;;5118123;28;20050;-80
2021/04/13 10:38:26;;;;;;;7.45;5.93;;;;;;;;;;5118301;28;20028;-81
2021/04/13 10:40:52;;;;;;;8.73;5.28;;;;;;;;;;5034605;28;20489;-80
2021/04/13 10:43:18;;;;;;;7.03;5.32;;;;;;;;;;5009047;28;20068;-80
2021/04/13 10:45:55;;;;;;;8.35;5.93;;;;;;;;;;5017654;28;20041;-80
2021/04/13 10:48:33;;;;;;;9.05;5.70;;;;;;;;;;5018459;28;20026;-80
2021/04/13 10:51:17;;;;;;;10.75;6.10;;;;;;;;;;5034973;28;20033;-81
2021/04/13 10:54:09;;;;;;;11.30;6.88;;;;;;;;;;5013957;28;20061;-80
2021/04/13 10:56:54;;;;;;;12.20;7.00;;;;;;;;;;4951946;29;20106;-81
2021/04/13 10:59:38;;;;;;;8.70;5.90;;;;;;;;;;4953878;29;20115;-81
2021/04/13 11:02:22;;;;;;;8.13;5.68;;;;;;;;;;4957273;29;20035;-81
2021/04/13 11:05:14;;;;;;;7.43;5.95;;;;;;;;;;4957168;29;20031;-81
2021/04/13 11:07:58;;;;;;;7.38;5.43;;;;;;;;;;4957406;29;20035;-80
2021/04/13 11:11:03;;;;;;;8.18;5.47;;;;;;;;;;4956913;29;20024;-81
2021/04/13 11:13:38;;;;;;;13.82;8.30;;;;;;;;;;4862804;29;20115;-81
2021/04/13 11:16:13;;;;;;;8.77;5.63;;;;;;;;;;4862564;29;20120;-81
2021/04/13 11:18:39;;;;;;;7.85;5.68;;;;;;;;;;4909339;29;20132;-81
2021/04/13 11:21:07;;;;;;;7.68;6.13;;;;;;;;;;4918692;29;20134;-81
2021/04/13 11:23:55;;;;;;;9.80;6.68;;;;;;;;;;4918991;29;20063;-81
2021/04/13 11:26:30;;;;;;;8.50;6.43;;;;;;;;;;4918894;29;20045;-82
2021/04/13 11:28:59;;;;;;;7.70;5.97;;;;;;;;;;4918842;29;20032;-81
2021/04/13 11:31:25;;;;;;;9.63;6.90;;;;;;;;;;4918838;29;20427;-80
2021/04/13 11:34:01;;;;;;;10.13;7.03;;;;;;;;;;4961833;28;20027;-80
2021/04/13 11:36:27;;;;;;;10.35;6.78;;;;;;;;;;4995662;28;20022;-80
2021/04/13 11:39:01;;;;;;;8.15;6.10;;;;;;;;;;4995477;28;20074;-80
2021/04/13 11:41:36;;;;;;;10.35;6.00;;;;;;;;;;4995783;28;20373;-80
2021/04/13 11:44:21;;;;;;;7.97;5.75;;;;;;;;;;5039185;28;20039;-81
2021/04/13 11:46:47;;;;;;;11.73;7.13;;;;;;;;;;5098487;28;20024;-79
2021/04/13 11:49:41;;;;;;;9.35;6.90;;;;;;;;;;5094900;28;20036;-79
2021/04/13 11:52:08;;;;;;;8.85;6.43;;;;;;;;;;5092997;28;20034;-81
2021/04/13 11:54:53;;;;;;;9.32;6.82;;;;;;;;;;5095672;28;20032;-81
2021/04/13 11:57:24;;;;;;;9.60;6.50;;;;;;;;;;5097556;28;20461;-82
2021/04/13 12:00:08;;;;;;;9.13;7.20;;;;;;;;;;5097735;28;20046;-80
2021/04/13 12:02:34;;;;;;;10.00;6.75;;;;;;;;;;5100821;28;20024;-80
2021/04/13 12:05:01;;;;;;;6.68;5.82;;;;;;;;;;5100504;28;20414;-80
2021/04/13 12:07:42;;;;;;;9.10;7.65;;;;;;;;;;5100804;28;20047;-80
2021/04/13 12:10:10;;;;;;;9.75;8.27;;;;;;;;;;5100705;28;20027;-79
2021/04/13 12:12:36;;;;;;;11.10;9.05;;;;;;;;;;5100552;28;20036;-80
2021/04/13 12:15:02;;;;;;;12.02;8.88;;;;;;;;;;5100432;28;20028;-79
2021/04/13 12:17:37;;;;;;;10.20;6.75;;;;;;;;;;5100509;28;20032;-80
2021/04/13 12:20:23;;;;;;;7.85;5.88;;;;;;;;;;5100297;28;20440;-80
2021/04/13 12:22:50;;;;;;;7.22;5.82;;;;;;;;;;5098982;28;20086;-80
2021/04/13 12:25:35;;;;;;;21.35;6.70;;;;;;;;;;5100180;28;20032;-80
2021/04/13 12:28:07;;;;;;;10.13;7.35;;;;;;;;;;5100113;28;20012;-81
2021/04/13 12:30:34;;;;;;;8.02;6.95;;;;;;;;;;5100183;28;20422;-80
2021/04/13 12:33:01;;;;;;;8.18;6.70;;;;;;;;;;5100122;28;20028;-79
2021/04/13 12:35:49;;;;;;;8.23;6.40;;;;;;;;;;5100202;28;20028;-79
2021/04/13 12:38:33;;;;;;;9.73;6.75;;;;;;;;;;5100107;28;20031;-80
2021/04/13 12:41:25;;;;;;;10.32;7.18;;;;;;;;;;5099996;28;20035;-80
2021/04/13 12:43:53;;;;;;;10.75;7.72;;;;;;;;;;5096470;28;20353;-80
2021/04/13 12:46:22;;;;;;;10.15;7.05;;;;;;;;;;5098749;28;20411;-81
2021/04/13 12:48:49;;;;;;;14.00;9.00;;;;;;;;;;5099821;28;20433;-80
2021/04/13 12:51:24;;;;;;;10.32;7.80;;;;;;;;;;5099801;28;20032;-80
2021/04/13 12:54:07;;;;;;;13.85;8.30;;;;;;;;;;5100158;28;20069;-81
2021/04/13 12:56:33;;;;;;;15.98;9.77;;;;;;;;;;5100041;28;20317;-81
2021/04/13 12:59:09;;;;;;;10.13;7.57;;;;;;;;;;5099786;28;20030;-81
2021/04/13 13:01:39;;;;;;;9.05;6.40;;;;;;;;;;5099578;28;20024;-80
2021/04/13 13:04:12;;;;;;;8.15;6.20;;;;;;;;;;5099796;28;20318;-80
2021/04/13 13:06:45;;;;;;;14.23;9.98;;;;;;;;;;5099605;28;20020;-80
2021/04/13 13:09:32;;;;;;;11.23;8.10;;;;;;;;;;5099719;28;20042;-80
2021/04/13 13:12:01;;;;;;;19.67;11.10;;;;;;;;;;5098863;28;20039;-80
2021/04/13 13:14:28;;;;;;;20.80;11.93;;;;;;;;;;5099272;28;20024;-80
2021/04/13 13:16:55;;;;;;;12.48;8.75;;;;;;;;;;5099273;28;20432;-80
2021/04/13 13:19:26;;;;;;;8.95;6.85;;;;;;;;;;5099248;28;20132;-80
2021/04/13 13:21:55;;;;;;;17.55;10.30;;;;;;;;;;5099051;28;20044;-80
2021/04/13 13:24:22;;;;;;;11.18;8.45;;;;;;;;;;5099185;28;20347;-79
2021/04/13 13:26:48;;;;;;;10.05;7.10;;;;;;;;;;5098932;28;20028;-80
2021/04/13 13:29:15;;;;;;;12.32;8.35;;;;;;;;;;5098892;28;20036;-79
2021/04/13 13:31:41;;;;;;;9.73;6.72;;;;;;;;;;5098955;28;20028;-79
2021/04/13 13:34:11;;;;;;;10.30;6.85;;;;;;;;;;5098883;28;20024;-80
2021/04/13 13:36:39;;;;;;;10.07;6.63;;;;;;;;;;5099026;28;20023;-80
2021/04/13 13:39:08;;;;;;;11.75;7.20;;;;;;;;;;5097527;28;20119;-79
2021/04/13 13:41:34;;;;;;;9.25;6.75;;;;;;;;;;5098760;28;20048;-80
2021/04/13 13:44:01;;;;;;;9.05;7.47;;;;;;;;;;5098462;28;20031;-79
2021/04/13 13:46:32;;;;;;;11.05;7.45;;;;;;;;;;5098561;28;20103;-81
2021/04/13 13:49:15;;;;;;;8.90;6.03;;;;;;;;;;5098929;28;20027;-81
2021/04/13 13:51:41;;;;;;;10.07;6.55;;;;;;;;;;5098634;28;20406;-80
2021/04/13 13:54:33;;;;;;;11.23;6.65;;;;;;;;;;5098355;28;20028;-81
2021/04/13 13:57:28;;;;;;;6.65;4.70;;;;;;;;;;5095134;28;20058;-80
2021/04/13 13:59:54;;;;;;;7.40;5.50;;;;;;;;;;5000092;28;20029;-80
2021/04/13 14:02:27;;;;;;;9.85;5.65;;;;;;;;;;4999953;28;20030;-80
2021/04/13 14:04:57;;;;;;;9.10;6.43;;;;;;;;;;5016457;28;20038;-80
2021/04/13 14:07:28;;;;;;;37.38;21.88;;;;;;;;;;5016638;28;20018;-81
2021/04/13 14:10:13;;;;;;;125.00;57.67;;;;;;;;;;5000034;28;20408;-81
2021/04/13 14:12:40;;;;;;;73.07;41.28;;;;;;;;;;5021146;28;20050;-80
2021/04/13 14:15:18;;;;;;;15.93;11.25;;;;;;;;;;5056009;28;20025;-81
2021/04/13 14:17:45;;;;;;;6.97;5.00;;;;;;;;;;5055922;28;20037;-80
2021/04/13 14:20:15;;;;;;;7.90;5.68;;;;;;;;;;5055752;28;20033;-81
2021/04/13 14:22:41;;;;;;;9.10;6.40;;;;;;;;;;5055195;28;20048;-81
2021/04/13 14:25:07;;;;;;;14.15;8.77;;;;;;;;;;5056048;28;20124;-81
2021/04/13 14:27:35;;;;;;;13.57;8.82;;;;;;;;;;5055847;28;20051;-80
2021/04/13 14:30:05;;;;;;;9.48;6.88;;;;;;;;;;5055762;28;20172;-80
2021/04/13 14:32:33;;;;;;;8.43;6.35;;;;;;;;;;5055648;28;20315;-81
2021/04/13 14:34:59;;;;;;;9.27;6.57;;;;;;;;;;5051333;28;20103;-80
2021/04/13 14:37:30;;;;;;;10.85;7.55;;;;;;;;;;5131195;27;20038;-81
2021/04/13 14:40:11;;;;;;;27.90;12.25;;;;;;;;;;5138915;27;20031;-79
2021/04/13 14:42:38;;;;;;;18.77;9.70;;;;;;;;;;5138782;27;20026;-79
2021/04/13 14:45:06;;;;;;;15.93;9.55;;;;;;;;;;5138627;27;20027;-78
2021/04/13 14:47:33;;;;;;;13.80;8.38;;;;;;;;;;5137535;27;20078;-78
2021/04/13 14:49:59;;;;;;;11.90;7.30;;;;;;;;;;5137416;27;20043;-78
2021/04/13 14:52:27;;;;;;;12.70;8.05;;;;;;;;;;5138332;27;20023;-78
2021/04/13 14:54:53;;;;;;;11.82;6.88;;;;;;;;;;5137208;27;20080;-78
2021/04/13 14:57:19;;;;;;;9.63;6.03;;;;;;;;;;5138205;27;20028;-78
2021/04/13 14:59:46;;;;;;;9.68;6.60;;;;;;;;;;5137171;27;20039;-78
2021/04/13 15:02:12;;;;;;;13.10;8.48;;;;;;;;;;5137091;27;20020;-79
2021/04/13 15:04:38;;;;;;;10.75;7.97;;;;;;;;;;5137120;27;20062;-79
2021/04/13 15:07:05;;;;;;;7.57;5.63;;;;;;;;;;5137885;27;20039;-78
2021/04/13 15:09:34;;;;;;;8.02;5.57;;;;;;;;;;5137064;27;20031;-79
2021/04/13 15:12:00;;;;;;;7.05;5.93;;;;;;;;;;5137175;27;20114;-79